sensor_id;sensor_type;location;lat;lon;timestamp;temperature;humidity
24802;DHT22;12898;50.520;12.152;2022-12-18T00:02:17;-13.30;99.90
24802;DHT22;12898;50.520;12.152;2022-12-18T00:04:43;-13.30;99.90
24802;DHT22;12898;50.520;12.152;2022-12-18T00:07:08;-13.30;99.90
24802;DHT22;12898;50.520;12.152;2022-12-18T00:09:34;-13.40;99.90
24802;DHT22;12898;50.520;12.152;2022-12-18T00:11:59;-13.40;99.90
24802;DHT22;12898;50.520;12.152;2022-12-18T00:14:25;-13.30;99.90
24802;DHT22;12898;50.520;12.152;2022-12-18T00:16:51;-13.40;99.90
24802;DHT22;12898;50.520;12.152;2022-12-18T00:19:17;-13.40;99.90
24802;DHT22;12898;50.520;12.152;2022-12-18T00:21:43;-13.40;99.90
24802;DHT22;12898;50.520;12.152;2022-12-18T00:24:10;-13.40;99.90
24802;DHT22;12898;50.520;12.152;2022-12-18T00:26:37;-13.40;99.90
24802;DHT22;12898;50.520;12.152;2022-12-18T00:29:11;-13.50;99.90
24802;DHT22;12898;50.520;12.152;2022-12-18T00:31:39;-13.40;99.90
24802;DHT22;12898;50.520;12.152;2022-12-18T00:34:05;-13.50;99.90
24802;DHT22;12898;50.520;12.152;2022-12-18T00:36:33;-13.50;99.90
24802;DHT22;12898;50.520;12.152;2022-12-18T00:39:02;-13.50;99.90
24802;DHT22;12898;50.520;12.152;2022-12-18T00:41:29;-13.50;99.90
24802;DHT22;12898;50.520;12.152;2022-12-18T00:44:15;-13.50;99.90
24802;DHT22;12898;50.520;12.152;2022-12-18T00:46:42;-13.60;99.90
24802;DHT22;12898;50.520;12.152;2022-12-18T00:49:08;-13.60;99.90
24802;DHT22;12898;50.520;12.152;2022-12-18T00:51:37;-13.60;99.90
24802;DHT22;12898;50.520;12.152;2022-12-18T00:54:03;-13.70;99.90
24802;DHT22;12898;50.520;12.152;2022-12-18T00:56:30;-13.70;99.90
24802;DHT22;12898;50.520;12.152;2022-12-18T00:58:56;-13.70;99.90
24802;DHT22;12898;50.520;12.152;2022-12-18T01:01:22;-13.70;99.90
24802;DHT22;12898;50.520;12.152;2022-12-18T01:03:48;-13.70;99.90
24802;DHT22;12898;50.520;12.152;2022-12-18T01:06:14;-13.70;99.90
24802;DHT22;12898;50.520;12.152;2022-12-18T01:08:41;-13.70;99.90
24802;DHT22;12898;50.520;12.152;2022-12-18T01:11:12;-13.70;99.90
24802;DHT22;12898;50.520;12.152;2022-12-18T01:13:40;-13.70;99.90
24802;DHT22;12898;50.520;12.152;2022-12-18T01:16:06;-13.70;99.90
24802;DHT22;12898;50.520;12.152;2022-12-18T01:18:32;-13.70;99.90
24802;DHT22;12898;50.520;12.152;2022-12-18T01:20:58;-13.70;99.90
24802;DHT22;12898;50.520;12.152;2022-12-18T01:23:24;-13.70;99.90
24802;DHT22;12898;50.520;12.152;2022-12-18T01:25:52;-13.70;99.90
24802;DHT22;12898;50.520;12.152;2022-12-18T01:28:17;-13.70;99.90
24802;DHT22;12898;50.520;12.152;2022-12-18T01:30:43;-13.80;99.90
24802;DHT22;12898;50.520;12.152;2022-12-18T01:33:09;-13.80;99.90
24802;DHT22;12898;50.520;12.152;2022-12-18T01:35:40;-13.90;99.90
24802;DHT22;12898;50.520;12.152;2022-12-18T01:38:07;-13.90;99.90
24802;DHT22;12898;50.520;12.152;2022-12-18T01:40:33;-13.90;99.90
24802;DHT22;12898;50.520;12.152;2022-12-18T01:42:58;-13.90;99.90
24802;DHT22;12898;50.520;12.152;2022-12-18T01:45:27;-13.90;99.90
24802;DHT22;12898;50.520;12.152;2022-12-18T01:48:00;-14.00;99.90
24802;DHT22;12898;50.520;12.152;2022-12-18T01:50:33;-14.00;99.90
24802;DHT22;12898;50.520;12.152;2022-12-18T01:53:21;-14.00;99.90
24802;DHT22;12898;50.520;12.152;2022-12-18T01:55:51;-14.00;99.90
24802;DHT22;12898;50.520;12.152;2022-12-18T01:58:21;-14.00;99.90
24802;DHT22;12898;50.520;12.152;2022-12-18T02:00:50;-14.10;99.90
24802;DHT22;12898;50.520;12.152;2022-12-18T02:03:15;-14.10;99.90
24802;DHT22;12898;50.520;12.152;2022-12-18T02:11:12;-14.20;99.90
24802;DHT22;12898;50.520;12.152;2022-12-18T02:14:08;-14.20;99.90
24802;DHT22;12898;50.520;12.152;2022-12-18T02:28:26;-14.20;99.90
24802;DHT22;12898;50.520;12.152;2022-12-18T02:30:56;-14.30;99.90
24802;DHT22;12898;50.520;12.152;2022-12-18T02:33:25;-14.30;99.90
24802;DHT22;12898;50.520;12.152;2022-12-18T02:35:54;-14.30;99.90
24802;DHT22;12898;50.520;12.152;2022-12-18T02:38:20;-14.30;99.90
24802;DHT22;12898;50.520;12.152;2022-12-18T02:40:47;-14.30;99.90
24802;DHT22;12898;50.520;12.152;2022-12-18T02:43:14;-14.40;99.90
24802;DHT22;12898;50.520;12.152;2022-12-18T02:45:58;-14.40;99.90
24802;DHT22;12898;50.520;12.152;2022-12-18T02:48:29;-14.40;99.90
24802;DHT22;12898;50.520;12.152;2022-12-18T02:51:18;-14.40;99.90
24802;DHT22;12898;50.520;12.152;2022-12-18T02:53:56;-14.40;99.90
24802;DHT22;12898;50.520;12.152;2022-12-18T02:56:34;-14.50;99.90
24802;DHT22;12898;50.520;12.152;2022-12-18T02:59:06;-14.50;99.90
24802;DHT22;12898;50.520;12.152;2022-12-18T03:01:57;-14.50;99.90
24802;DHT22;12898;50.520;12.152;2022-12-18T03:04:36;-14.60;99.90
24802;DHT22;12898;50.520;12.152;2022-12-18T03:07:11;-14.60;99.90
24802;DHT22;12898;50.520;12.152;2022-12-18T03:09:44;-14.50;99.90
24802;DHT22;12898;50.520;12.152;2022-12-18T03:12:32;-14.50;99.90
24802;DHT22;12898;50.520;12.152;2022-12-18T03:17:33;-14.60;99.90
24802;DHT22;12898;50.520;12.152;2022-12-18T03:20:05;-14.60;99.90
24802;DHT22;12898;50.520;12.152;2022-12-18T03:22:35;-14.60;99.90
24802;DHT22;12898;50.520;12.152;2022-12-18T03:25:05;-14.60;99.90
24802;DHT22;12898;50.520;12.152;2022-12-18T03:27:36;-14.70;99.90
24802;DHT22;12898;50.520;12.152;2022-12-18T03:30:06;-14.70;99.90
24802;DHT22;12898;50.520;12.152;2022-12-18T03:33:25;-14.70;99.90
24802;DHT22;12898;50.520;12.152;2022-12-18T03:35:38;-14.70;99.90
24802;DHT22;12898;50.520;12.152;2022-12-18T03:38:06;-14.70;99.90
24802;DHT22;12898;50.520;12.152;2022-12-18T03:47:58;-14.80;99.90
24802;DHT22;12898;50.520;12.152;2022-12-18T03:50:16;-14.80;99.90
24802;DHT22;12898;50.520;12.152;2022-12-18T03:52:57;-14.80;99.90
24802;DHT22;12898;50.520;12.152;2022-12-18T03:55:28;-14.80;99.90
24802;DHT22;12898;50.520;12.152;2022-12-18T03:57:57;-14.90;99.90
24802;DHT22;12898;50.520;12.152;2022-12-18T04:00:24;-14.90;99.90
24802;DHT22;12898;50.520;12.152;2022-12-18T04:02:52;-14.90;99.90
24802;DHT22;12898;50.520;12.152;2022-12-18T04:05:20;-14.90;99.90
24802;DHT22;12898;50.520;12.152;2022-12-18T04:07:48;-15.00;99.90
24802;DHT22;12898;50.520;12.152;2022-12-18T04:10:16;-15.00;99.90
24802;DHT22;12898;50.520;12.152;2022-12-18T04:12:42;-15.00;99.90
24802;DHT22;12898;50.520;12.152;2022-12-18T04:15:08;-15.00;99.90
24802;DHT22;12898;50.520;12.152;2022-12-18T04:17:34;-15.00;99.90
24802;DHT22;12898;50.520;12.152;2022-12-18T04:20:00;-15.00;99.90
24802;DHT22;12898;50.520;12.152;2022-12-18T04:22:26;-15.00;99.90
24802;DHT22;12898;50.520;12.152;2022-12-18T04:24:51;-15.00;99.90
24802;DHT22;12898;50.520;12.152;2022-12-18T04:27:17;-15.00;99.90
24802;DHT22;12898;50.520;12.152;2022-12-18T04:29:43;-15.00;99.90
24802;DHT22;12898;50.520;12.152;2022-12-18T04:32:08;-15.00;99.90
24802;DHT22;12898;50.520;12.152;2022-12-18T04:34:34;-15.00;99.90
24802;DHT22;12898;50.520;12.152;2022-12-18T04:37:00;-15.00;99.90
24802;DHT22;12898;50.520;12.152;2022-12-18T04:39:26;-14.90;99.90
24802;DHT22;12898;50.520;12.152;2022-12-18T04:41:51;-15.00;99.90
24802;DHT22;12898;50.520;12.152;2022-12-18T04:44:17;-14.90;99.90
24802;DHT22;12898;50.520;12.152;2022-12-18T04:46:43;-15.00;99.90
24802;DHT22;12898;50.520;12.152;2022-12-18T04:49:09;-15.00;99.90
24802;DHT22;12898;50.520;12.152;2022-12-18T04:51:36;-15.00;99.90
24802;DHT22;12898;50.520;12.152;2022-12-18T04:54:02;-15.10;99.90
24802;DHT22;12898;50.520;12.152;2022-12-18T04:56:30;-15.10;99.90
24802;DHT22;12898;50.520;12.152;2022-12-18T04:58:56;-15.00;99.90
24802;DHT22;12898;50.520;12.152;2022-12-18T05:01:21;-15.10;99.90
24802;DHT22;12898;50.520;12.152;2022-12-18T05:03:47;-15.10;99.90
24802;DHT22;12898;50.520;12.152;2022-12-18T05:06:13;-15.10;99.90
24802;DHT22;12898;50.520;12.152;2022-12-18T05:08:38;-15.20;99.90
24802;DHT22;12898;50.520;12.152;2022-12-18T05:11:07;-15.20;99.90
24802;DHT22;12898;50.520;12.152;2022-12-18T05:13:35;-15.20;99.90
24802;DHT22;12898;50.520;12.152;2022-12-18T05:16:02;-15.20;99.90
24802;DHT22;12898;50.520;12.152;2022-12-18T05:18:28;-15.30;99.90
24802;DHT22;12898;50.520;12.152;2022-12-18T05:20:54;-15.30;99.90
24802;DHT22;12898;50.520;12.152;2022-12-18T05:23:21;-15.30;99.90
24802;DHT22;12898;50.520;12.152;2022-12-18T05:26:00;-15.30;99.90
24802;DHT22;12898;50.520;12.152;2022-12-18T05:28:29;-15.30;99.90
24802;DHT22;12898;50.520;12.152;2022-12-18T05:30:59;-15.30;99.90
24802;DHT22;12898;50.520;12.152;2022-12-18T05:33:28;-15.30;99.90
24802;DHT22;12898;50.520;12.152;2022-12-18T05:35:57;-15.40;99.90
24802;DHT22;12898;50.520;12.152;2022-12-18T05:38:24;-15.40;99.90
24802;DHT22;12898;50.520;12.152;2022-12-18T05:40:52;-15.40;99.90
24802;DHT22;12898;50.520;12.152;2022-12-18T05:43:18;-15.40;99.90
24802;DHT22;12898;50.520;12.152;2022-12-18T05:45:45;-15.40;99.90
24802;DHT22;12898;50.520;12.152;2022-12-18T05:48:11;-15.40;99.90
24802;DHT22;12898;50.520;12.152;2022-12-18T05:50:41;-15.40;99.90
24802;DHT22;12898;50.520;12.152;2022-12-18T05:53:08;-15.40;99.90
24802;DHT22;12898;50.520;12.152;2022-12-18T05:55:35;-15.40;99.90
24802;DHT22;12898;50.520;12.152;2022-12-18T05:58:02;-15.50;99.90
24802;DHT22;12898;50.520;12.152;2022-12-18T06:00:30;-15.50;99.90
24802;DHT22;12898;50.520;12.152;2022-12-18T06:02:57;-15.50;99.90
24802;DHT22;12898;50.520;12.152;2022-12-18T06:05:23;-15.50;99.90
24802;DHT22;12898;50.520;12.152;2022-12-18T06:07:49;-15.50;99.90
24802;DHT22;12898;50.520;12.152;2022-12-18T06:10:14;-15.50;99.90
24802;DHT22;12898;50.520;12.152;2022-12-18T06:12:40;-15.50;99.90
24802;DHT22;12898;50.520;12.152;2022-12-18T06:15:06;-15.40;99.90
24802;DHT22;12898;50.520;12.152;2022-12-18T06:17:32;-15.40;99.90
24802;DHT22;12898;50.520;12.152;2022-12-18T06:19:59;-15.50;99.90
24802;DHT22;12898;50.520;12.152;2022-12-18T06:22:25;-15.50;99.90
24802;DHT22;12898;50.520;12.152;2022-12-18T06:24:51;-15.50;99.90
24802;DHT22;12898;50.520;12.152;2022-12-18T06:27:16;-15.50;99.90
24802;DHT22;12898;50.520;12.152;2022-12-18T06:29:42;-15.50;99.90
24802;DHT22;12898;50.520;12.152;2022-12-18T06:32:08;-15.50;99.90
24802;DHT22;12898;50.520;12.152;2022-12-18T06:34:34;-15.50;99.90
24802;DHT22;12898;50.520;12.152;2022-12-18T06:37:00;-15.50;99.90
24802;DHT22;12898;50.520;12.152;2022-12-18T06:39:28;-15.50;99.90
24802;DHT22;12898;50.520;12.152;2022-12-18T06:41:54;-15.50;99.90
24802;DHT22;12898;50.520;12.152;2022-12-18T06:44:20;-15.50;99.90
24802;DHT22;12898;50.520;12.152;2022-12-18T06:46:45;-15.40;99.90
24802;DHT22;12898;50.520;12.152;2022-12-18T06:49:11;-15.50;99.90
24802;DHT22;12898;50.520;12.152;2022-12-18T06:51:37;-15.50;99.90
24802;DHT22;12898;50.520;12.152;2022-12-18T06:54:03;-15.40;99.90
24802;DHT22;12898;50.520;12.152;2022-12-18T06:56:29;-15.40;99.90
24802;DHT22;12898;50.520;12.152;2022-12-18T06:58:55;-15.40;99.90
24802;DHT22;12898;50.520;12.152;2022-12-18T07:01:22;-15.20;99.90
24802;DHT22;12898;50.520;12.152;2022-12-18T07:03:52;-15.30;99.90
24802;DHT22;12898;50.520;12.152;2022-12-18T07:06:21;-15.20;99.90
24802;DHT22;12898;50.520;12.152;2022-12-18T07:08:49;-15.20;99.90
24802;DHT22;12898;50.520;12.152;2022-12-18T07:11:16;-15.20;99.90
24802;DHT22;12898;50.520;12.152;2022-12-18T07:13:42;-15.20;99.90
24802;DHT22;12898;50.520;12.152;2022-12-18T07:16:17;-15.20;99.90
24802;DHT22;12898;50.520;12.152;2022-12-18T07:18:44;-15.20;99.90
24802;DHT22;12898;50.520;12.152;2022-12-18T07:21:15;-15.20;99.90
24802;DHT22;12898;50.520;12.152;2022-12-18T07:23:43;-15.20;99.90
24802;DHT22;12898;50.520;12.152;2022-12-18T07:26:12;-15.20;99.90
24802;DHT22;12898;50.520;12.152;2022-12-18T07:28:39;-15.10;99.90
24802;DHT22;12898;50.520;12.152;2022-12-18T07:31:08;-15.00;99.90
24802;DHT22;12898;50.520;12.152;2022-12-18T07:33:35;-14.80;99.90
24802;DHT22;12898;50.520;12.152;2022-12-18T07:36:05;-14.60;99.90
24802;DHT22;12898;50.520;12.152;2022-12-18T07:38:33;-14.50;99.90
24802;DHT22;12898;50.520;12.152;2022-12-18T07:41:11;-14.30;99.90
24802;DHT22;12898;50.520;12.152;2022-12-18T07:43:38;-14.20;99.90
24802;DHT22;12898;50.520;12.152;2022-12-18T07:46:06;-14.00;99.90
24802;DHT22;12898;50.520;12.152;2022-12-18T07:48:32;-13.90;99.90
24802;DHT22;12898;50.520;12.152;2022-12-18T07:51:02;-13.70;99.90
24802;DHT22;12898;50.520;12.152;2022-12-18T07:53:30;-13.50;99.90
24802;DHT22;12898;50.520;12.152;2022-12-18T07:56:02;-13.30;99.90
24802;DHT22;12898;50.520;12.152;2022-12-18T07:58:29;-13.20;99.90
24802;DHT22;12898;50.520;12.152;2022-12-18T08:01:09;-13.10;99.90
24802;DHT22;12898;50.520;12.152;2022-12-18T08:03:36;-13.00;99.90
24802;DHT22;12898;50.520;12.152;2022-12-18T08:06:04;-12.80;99.90
24802;DHT22;12898;50.520;12.152;2022-12-18T08:08:33;-12.70;99.90
24802;DHT22;12898;50.520;12.152;2022-12-18T08:10:59;-12.60;99.90
24802;DHT22;12898;50.520;12.152;2022-12-18T08:13:26;-12.50;99.90
24802;DHT22;12898;50.520;12.152;2022-12-18T08:16:10;-12.30;99.90
24802;DHT22;12898;50.520;12.152;2022-12-18T08:18:37;-12.20;99.90
24802;DHT22;12898;50.520;12.152;2022-12-18T08:21:10;-12.10;99.90
24802;DHT22;12898;50.520;12.152;2022-12-18T08:23:37;-12.00;99.90
24802;DHT22;12898;50.520;12.152;2022-12-18T08:26:03;-11.90;99.90
24802;DHT22;12898;50.520;12.152;2022-12-18T08:28:29;-11.80;99.90
24802;DHT22;12898;50.520;12.152;2022-12-18T08:30:54;-11.70;99.90
24802;DHT22;12898;50.520;12.152;2022-12-18T08:33:20;-11.60;99.90
24802;DHT22;12898;50.520;12.152;2022-12-18T08:35:46;-11.40;99.90
24802;DHT22;12898;50.520;12.152;2022-12-18T08:38:11;-11.30;99.90
24802;DHT22;12898;50.520;12.152;2022-12-18T08:40:37;-11.20;99.90
24802;DHT22;12898;50.520;12.152;2022-12-18T08:43:03;-11.10;99.90
24802;DHT22;12898;50.520;12.152;2022-12-18T08:45:47;-11.00;99.90
24802;DHT22;12898;50.520;12.152;2022-12-18T08:48:12;-10.80;99.90
24802;DHT22;12898;50.520;12.152;2022-12-18T08:50:38;-10.70;99.90
24802;DHT22;12898;50.520;12.152;2022-12-18T08:53:04;-10.50;99.90
24802;DHT22;12898;50.520;12.152;2022-12-18T08:55:30;-10.40;99.90
24802;DHT22;12898;50.520;12.152;2022-12-18T08:57:55;-10.20;99.90
24802;DHT22;12898;50.520;12.152;2022-12-18T09:00:21;-10.10;99.90
24802;DHT22;12898;50.520;12.152;2022-12-18T09:02:47;-9.90;99.90
24802;DHT22;12898;50.520;12.152;2022-12-18T09:05:12;-9.70;99.90
24802;DHT22;12898;50.520;12.152;2022-12-18T09:07:38;-9.60;99.90
24802;DHT22;12898;50.520;12.152;2022-12-18T09:10:04;-9.40;99.90
24802;DHT22;12898;50.520;12.152;2022-12-18T09:12:30;-9.20;99.90
24802;DHT22;12898;50.520;12.152;2022-12-18T09:14:56;-9.10;99.90
24802;DHT22;12898;50.520;12.152;2022-12-18T09:17:22;-8.90;99.90
24802;DHT22;12898;50.520;12.152;2022-12-18T09:19:48;-8.80;99.90
24802;DHT22;12898;50.520;12.152;2022-12-18T09:22:14;-8.60;99.90
24802;DHT22;12898;50.520;12.152;2022-12-18T09:24:40;-8.40;99.90
24802;DHT22;12898;50.520;12.152;2022-12-18T09:27:05;-8.20;99.90
24802;DHT22;12898;50.520;12.152;2022-12-18T09:29:32;-8.00;99.90
24802;DHT22;12898;50.520;12.152;2022-12-18T09:31:57;-7.70;99.90
24802;DHT22;12898;50.520;12.152;2022-12-18T09:34:23;-7.50;99.90
24802;DHT22;12898;50.520;12.152;2022-12-18T09:36:50;-7.30;99.90
24802;DHT22;12898;50.520;12.152;2022-12-18T09:39:16;-7.10;99.90
24802;DHT22;12898;50.520;12.152;2022-12-18T09:41:50;-6.80;99.90
24802;DHT22;12898;50.520;12.152;2022-12-18T09:44:27;-6.60;99.90
24802;DHT22;12898;50.520;12.152;2022-12-18T09:47:13;-6.30;99.90
24802;DHT22;12898;50.520;12.152;2022-12-18T09:49:45;-6.00;99.90
24802;DHT22;12898;50.520;12.152;2022-12-18T09:52:30;-5.80;99.90
24802;DHT22;12898;50.520;12.152;2022-12-18T09:55:34;-5.50;99.90
24802;DHT22;12898;50.520;12.152;2022-12-18T09:58:12;-5.20;99.90
24802;DHT22;12898;50.520;12.152;2022-12-18T10:00:44;-4.80;99.90
24802;DHT22;12898;50.520;12.152;2022-12-18T10:03:12;-4.50;99.90
24802;DHT22;12898;50.520;12.152;2022-12-18T10:05:54;-4.20;99.90
24802;DHT22;12898;50.520;12.152;2022-12-18T10:14:01;-3.50;99.90
24802;DHT22;12898;50.520;12.152;2022-12-18T10:16:53;-3.30;99.90
24802;DHT22;12898;50.520;12.152;2022-12-18T10:19:47;-3.20;99.90
24802;DHT22;12898;50.520;12.152;2022-12-18T10:25:25;-2.90;99.90
24802;DHT22;12898;50.520;12.152;2022-12-18T10:28:06;-2.80;99.90
24802;DHT22;12898;50.520;12.152;2022-12-18T10:30:35;-2.60;99.90
24802;DHT22;12898;50.520;12.152;2022-12-18T10:33:04;-2.50;99.90
24802;DHT22;12898;50.520;12.152;2022-12-18T10:35:30;-2.30;99.90
24802;DHT22;12898;50.520;12.152;2022-12-18T10:38:01;-2.30;99.90
24802;DHT22;12898;50.520;12.152;2022-12-18T10:40:28;-2.20;99.90
24802;DHT22;12898;50.520;12.152;2022-12-18T10:43:13;-2.10;99.90
24802;DHT22;12898;50.520;12.152;2022-12-18T10:45:41;-1.90;99.90
24802;DHT22;12898;50.520;12.152;2022-12-18T10:48:21;-1.60;99.90
24802;DHT22;12898;50.520;12.152;2022-12-18T10:50:49;-1.50;99.90
24802;DHT22;12898;50.520;12.152;2022-12-18T10:53:24;-1.40;99.90
24802;DHT22;12898;50.520;12.152;2022-12-18T10:55:57;-1.20;99.90
24802;DHT22;12898;50.520;12.152;2022-12-18T10:58:32;-1.10;99.90
24802;DHT22;12898;50.520;12.152;2022-12-18T11:03:35;-0.80;99.90
24802;DHT22;12898;50.520;12.152;2022-12-18T11:06:11;-0.80;99.90
24802;DHT22;12898;50.520;12.152;2022-12-18T11:08:41;-0.90;99.90
24802;DHT22;12898;50.520;12.152;2022-12-18T11:11:21;-0.90;99.90
24802;DHT22;12898;50.520;12.152;2022-12-18T11:14:16;-0.90;99.90
24802;DHT22;12898;50.520;12.152;2022-12-18T11:16:46;-0.80;99.90
24802;DHT22;12898;50.520;12.152;2022-12-18T11:21:54;-0.60;99.90
24802;DHT22;12898;50.520;12.152;2022-12-18T11:24:32;-0.50;99.90
24802;DHT22;12898;50.520;12.152;2022-12-18T11:27:05;-0.20;99.90
24802;DHT22;12898;50.520;12.152;2022-12-18T11:29:39;-0.10;99.90
24802;DHT22;12898;50.520;12.152;2022-12-18T11:32:28;0.10;99.90
24802;DHT22;12898;50.520;12.152;2022-12-18T11:35:51;0.10;99.90
24802;DHT22;12898;50.520;12.152;2022-12-18T11:38:26;0.30;99.90
24802;DHT22;12898;50.520;12.152;2022-12-18T11:44:16;0.50;99.90
24802;DHT22;12898;50.520;12.152;2022-12-18T11:46:53;0.50;99.90
24802;DHT22;12898;50.520;12.152;2022-12-18T11:49:35;0.50;99.90
24802;DHT22;12898;50.520;12.152;2022-12-18T11:55:10;0.50;99.90
24802;DHT22;12898;50.520;12.152;2022-12-18T11:57:54;0.50;99.90
24802;DHT22;12898;50.520;12.152;2022-12-18T12:00:25;0.60;99.90
24802;DHT22;12898;50.520;12.152;2022-12-18T12:11:48;0.60;99.90
24802;DHT22;12898;50.520;12.152;2022-12-18T12:17:36;0.80;99.90
24802;DHT22;12898;50.520;12.152;2022-12-18T12:20:33;0.80;99.90
24802;DHT22;12898;50.520;12.152;2022-12-18T12:26:01;0.80;99.90
24802;DHT22;12898;50.520;12.152;2022-12-18T12:28:51;0.80;99.90
24802;DHT22;12898;50.520;12.152;2022-12-18T12:34:25;0.90;99.90
24802;DHT22;12898;50.520;12.152;2022-12-18T12:39:38;1.00;99.90
24802;DHT22;12898;50.520;12.152;2022-12-18T12:42:20;1.20;99.90
24802;DHT22;12898;50.520;12.152;2022-12-18T12:45:18;1.20;99.90
24802;DHT22;12898;50.520;12.152;2022-12-18T12:47:49;1.00;99.90
24802;DHT22;12898;50.520;12.152;2022-12-18T12:50:17;1.00;99.90
24802;DHT22;12898;50.520;12.152;2022-12-18T12:52:47;0.90;99.90
24802;DHT22;12898;50.520;12.152;2022-12-18T12:55:26;0.90;99.90
24802;DHT22;12898;50.520;12.152;2022-12-18T12:57:58;0.90;99.90
24802;DHT22;12898;50.520;12.152;2022-12-18T13:00:37;0.90;99.90
24802;DHT22;12898;50.520;12.152;2022-12-18T13:06:04;0.80;99.90
24802;DHT22;12898;50.520;12.152;2022-12-18T13:08:54;0.60;99.90
24802;DHT22;12898;50.520;12.152;2022-12-18T13:11:46;0.60;99.90
24802;DHT22;12898;50.520;12.152;2022-12-18T13:14:34;0.50;99.90
24802;DHT22;12898;50.520;12.152;2022-12-18T13:17:31;0.50;99.90
24802;DHT22;12898;50.520;12.152;2022-12-18T13:20:14;0.30;99.90
24802;DHT22;12898;50.520;12.152;2022-12-18T13:25:35;0.00;99.90
24802;DHT22;12898;50.520;12.152;2022-12-18T13:28:07;-0.10;99.90
24802;DHT22;12898;50.520;12.152;2022-12-18T13:30:45;-0.30;99.90
24802;DHT22;12898;50.520;12.152;2022-12-18T13:40:54;-0.70;99.90
24802;DHT22;12898;50.520;12.152;2022-12-18T13:46:19;-0.80;99.90
24802;DHT22;12898;50.520;12.152;2022-12-18T13:51:44;-0.90;99.90
24802;DHT22;12898;50.520;12.152;2022-12-18T13:56:56;-1.00;99.90
24802;DHT22;12898;50.520;12.152;2022-12-18T13:59:32;-1.20;99.90
24802;DHT22;12898;50.520;12.152;2022-12-18T14:02:44;-1.20;99.90
24802;DHT22;12898;50.520;12.152;2022-12-18T14:04:54;-1.30;99.90
24802;DHT22;12898;50.520;12.152;2022-12-18T14:07:24;-1.40;99.90
24802;DHT22;12898;50.520;12.152;2022-12-18T14:10:00;-1.50;99.90
24802;DHT22;12898;50.520;12.152;2022-12-18T14:12:29;-1.50;99.90
24802;DHT22;12898;50.520;12.152;2022-12-18T14:15:31;-1.60;99.90
24802;DHT22;12898;50.520;12.152;2022-12-18T14:20:52;-1.70;99.90
24802;DHT22;12898;50.520;12.152;2022-12-18T14:23:45;-1.80;99.90
24802;DHT22;12898;50.520;12.152;2022-12-18T14:28:48;-2.00;99.90
24802;DHT22;12898;50.520;12.152;2022-12-18T14:31:21;-2.00;99.90
24802;DHT22;12898;50.520;12.152;2022-12-18T14:33:50;-2.00;99.90
24802;DHT22;12898;50.520;12.152;2022-12-18T14:36:28;-2.10;99.90
24802;DHT22;12898;50.520;12.152;2022-12-18T14:38:56;-2.10;99.90
24802;DHT22;12898;50.520;12.152;2022-12-18T14:41:24;-2.20;99.90
24802;DHT22;12898;50.520;12.152;2022-12-18T14:43:52;-2.20;99.90
24802;DHT22;12898;50.520;12.152;2022-12-18T14:49:31;-2.40;99.90
24802;DHT22;12898;50.520;12.152;2022-12-18T14:52:04;-2.40;99.90
24802;DHT22;12898;50.520;12.152;2022-12-18T14:54:32;-2.40;99.90
24802;DHT22;12898;50.520;12.152;2022-12-18T14:57:22;-2.50;99.90
24802;DHT22;12898;50.520;12.152;2022-12-18T14:59:49;-2.50;99.90
24802;DHT22;12898;50.520;12.152;2022-12-18T15:02:23;-2.50;99.90
24802;DHT22;12898;50.520;12.152;2022-12-18T15:05:19;-2.60;99.90
24802;DHT22;12898;50.520;12.152;2022-12-18T15:07:48;-2.60;99.90
24802;DHT22;12898;50.520;12.152;2022-12-18T15:10:27;-2.70;99.90
24802;DHT22;12898;50.520;12.152;2022-12-18T15:20:54;-2.70;99.90
24802;DHT22;12898;50.520;12.152;2022-12-18T15:23:23;-2.70;99.90
24802;DHT22;12898;50.520;12.152;2022-12-18T15:26:07;-2.70;99.90
24802;DHT22;12898;50.520;12.152;2022-12-18T15:33:43;-2.80;99.90
24802;DHT22;12898;50.520;12.152;2022-12-18T15:36:16;-2.80;99.90
24802;DHT22;12898;50.520;12.152;2022-12-18T15:38:49;-2.90;99.90
24802;DHT22;12898;50.520;12.152;2022-12-18T15:41:21;-2.90;99.90
24802;DHT22;12898;50.520;12.152;2022-12-18T15:43:51;-2.90;99.90
24802;DHT22;12898;50.520;12.152;2022-12-18T15:46:24;-3.00;99.90
24802;DHT22;12898;50.520;12.152;2022-12-18T15:48:55;-3.00;99.90
24802;DHT22;12898;50.520;12.152;2022-12-18T15:51:24;-3.00;99.90
24802;DHT22;12898;50.520;12.152;2022-12-18T15:53:55;-3.00;99.90
24802;DHT22;12898;50.520;12.152;2022-12-18T15:56:22;-3.00;99.90
24802;DHT22;12898;50.520;12.152;2022-12-18T15:59:16;-3.00;99.90
24802;DHT22;12898;50.520;12.152;2022-12-18T16:01:46;-3.10;99.90
24802;DHT22;12898;50.520;12.152;2022-12-18T16:04:15;-3.10;99.90
24802;DHT22;12898;50.520;12.152;2022-12-18T16:06:42;-3.10;99.90
24802;DHT22;12898;50.520;12.152;2022-12-18T16:09:08;-3.10;99.90
24802;DHT22;12898;50.520;12.152;2022-12-18T16:11:36;-3.10;99.90
24802;DHT22;12898;50.520;12.152;2022-12-18T16:14:24;-3.20;99.90
24802;DHT22;12898;50.520;12.152;2022-12-18T16:17:00;-3.20;99.90
24802;DHT22;12898;50.520;12.152;2022-12-18T16:19:28;-3.20;99.90
24802;DHT22;12898;50.520;12.152;2022-12-18T16:21:56;-3.20;99.90
24802;DHT22;12898;50.520;12.152;2022-12-18T16:24:25;-3.20;99.90
24802;DHT22;12898;50.520;12.152;2022-12-18T16:26:52;-3.20;99.90
24802;DHT22;12898;50.520;12.152;2022-12-18T16:29:19;-3.20;99.90
24802;DHT22;12898;50.520;12.152;2022-12-18T16:31:52;-3.20;99.90
24802;DHT22;12898;50.520;12.152;2022-12-18T16:34:27;-3.20;99.90
24802;DHT22;12898;50.520;12.152;2022-12-18T16:36:56;-3.20;99.90
24802;DHT22;12898;50.520;12.152;2022-12-18T16:39:23;-3.20;99.90
24802;DHT22;12898;50.520;12.152;2022-12-18T16:41:50;-3.20;99.90
24802;DHT22;12898;50.520;12.152;2022-12-18T16:44:16;-3.20;99.90
24802;DHT22;12898;50.520;12.152;2022-12-18T16:46:42;-3.20;99.90
24802;DHT22;12898;50.520;12.152;2022-12-18T16:49:10;-3.20;99.90
24802;DHT22;12898;50.520;12.152;2022-12-18T16:51:37;-3.20;99.90
24802;DHT22;12898;50.520;12.152;2022-12-18T16:54:03;-3.20;99.90
24802;DHT22;12898;50.520;12.152;2022-12-18T16:56:29;-3.20;99.90
24802;DHT22;12898;50.520;12.152;2022-12-18T16:58:56;-3.20;99.90
24802;DHT22;12898;50.520;12.152;2022-12-18T17:01:25;-3.10;99.90
24802;DHT22;12898;50.520;12.152;2022-12-18T17:03:53;-3.20;99.90
24802;DHT22;12898;50.520;12.152;2022-12-18T17:06:21;-3.10;99.90
24802;DHT22;12898;50.520;12.152;2022-12-18T17:08:47;-3.20;99.90
24802;DHT22;12898;50.520;12.152;2022-12-18T17:11:13;-3.20;99.90
24802;DHT22;12898;50.520;12.152;2022-12-18T17:13:39;-3.20;99.90
24802;DHT22;12898;50.520;12.152;2022-12-18T17:16:05;-3.20;99.90
24802;DHT22;12898;50.520;12.152;2022-12-18T17:18:32;-3.20;99.90
24802;DHT22;12898;50.520;12.152;2022-12-18T17:21:03;-3.20;99.90
24802;DHT22;12898;50.520;12.152;2022-12-18T17:23:30;-3.20;99.90
24802;DHT22;12898;50.520;12.152;2022-12-18T17:25:57;-3.20;99.90